KFME

Tipton Airport

Fort Meade (Odenton), Maryland, USA

KFME 110906Z AUTO 00000KT 10SM OVC070 00/M02 A3006 RMK AO1

Observed Flight Rules
Dec-11 @ 09:06 UTC (25 minutes ago) Visual Flight Rules
Wind Visibility Clouds
Calm 10 miles
  • Overcast at 7,000' AGL
Temperatures Readings
Current 0°C / 32°F
Dewpoint -2°C / 28°F
Humidity 87%
Altimeter 30.06" Hg
Pressure 1018 hPa
Elevation 46
Observed Flight Rules
Dec-11 @ 09:06 UTC
(25 minutes ago)
VFR
Wind Visibility
Calm 10 miles
Clouds
  • Overcast at 7,000' AGL
Temperature Dewpoint
0°C / 32°F -2°C / 28°F
Humidity Altimeter Pressure
87% 30.06" Hg 1018 hPa